createdAt,value
2022-10-16T00:01:12.360Z,16.17
2022-10-16T00:03:40.714Z,16.15
2022-10-16T00:06:09.092Z,16.12
2022-10-16T00:08:36.804Z,16.13
2022-10-16T00:11:06.567Z,16.11
2022-10-16T00:13:34.659Z,16.10
2022-10-16T00:16:02.551Z,16.03
2022-10-16T00:18:30.211Z,16.07
2022-10-16T00:21:19.131Z,16.03
2022-10-16T00:23:46.120Z,16.03
2022-10-16T00:26:15.319Z,16.02
2022-10-16T00:28:52.459Z,15.97
2022-10-16T00:31:21.272Z,15.97
2022-10-16T00:33:48.360Z,15.97
2022-10-16T00:36:18.830Z,15.95
2022-10-16T00:38:46.179Z,15.93
2022-10-16T00:41:15.957Z,15.94
2022-10-16T00:43:51.205Z,15.92
2022-10-16T00:46:24.340Z,15.91
2022-10-16T00:48:55.772Z,15.88
2022-10-16T00:51:29.240Z,15.89
2022-10-16T00:53:56.475Z,15.85
2022-10-16T00:56:23.441Z,15.86
2022-10-16T00:58:50.258Z,15.80
2022-10-16T01:01:16.897Z,15.76
2022-10-16T01:03:43.453Z,15.80
2022-10-16T01:09:04.291Z,15.79
2022-10-16T01:11:44.391Z,15.76
2022-10-16T01:14:32.978Z,15.73
2022-10-16T01:17:06.814Z,15.73
2022-10-16T01:19:58.636Z,15.68
2022-10-16T01:22:30.973Z,15.68
2022-10-16T01:25:06.276Z,15.68
2022-10-16T01:27:36.981Z,15.66
2022-10-16T01:30:11.607Z,15.65
2022-10-16T01:32:37.974Z,15.57
2022-10-16T01:35:19.496Z,15.57
2022-10-16T01:37:53.121Z,15.53
2022-10-16T01:40:22.195Z,15.56
2022-10-16T01:43:04.870Z,15.53
2022-10-16T01:45:33.196Z,15.53
2022-10-16T01:48:05.067Z,15.52
2022-10-16T01:50:35.005Z,15.50
2022-10-16T01:53:04.573Z,15.49
2022-10-16T01:55:36.346Z,15.49
2022-10-16T01:58:08.220Z,15.44
2022-10-16T02:00:37.496Z,15.46
2022-10-16T02:03:05.794Z,15.45
2022-10-16T02:05:39.342Z,15.43
2022-10-16T02:08:06.025Z,15.41
2022-10-16T02:10:33.451Z,15.38
2022-10-16T02:13:24.908Z,15.36
2022-10-16T02:15:51.437Z,15.35
2022-10-16T02:18:21.552Z,15.36
2022-10-16T02:21:20.147Z,15.31
2022-10-16T02:23:53.459Z,15.29
2022-10-16T02:26:29.158Z,15.28
2022-10-16T02:29:05.598Z,15.24
2022-10-16T02:31:36.281Z,15.24
2022-10-16T02:34:06.065Z,15.24
2022-10-16T02:36:34.782Z,15.24
2022-10-16T02:39:02.473Z,15.22
2022-10-16T02:41:29.026Z,15.21
2022-10-16T02:43:56.140Z,15.17
2022-10-16T02:46:22.750Z,15.18
2022-10-16T02:48:49.302Z,15.11
2022-10-16T02:51:15.833Z,15.16
2022-10-16T02:53:42.365Z,15.11
2022-10-16T02:56:08.976Z,15.14
2022-10-16T02:58:35.807Z,15.13
2022-10-16T03:01:02.738Z,15.10
2022-10-16T03:03:29.601Z,15.11
2022-10-16T03:05:56.178Z,15.09
2022-10-16T03:08:24.609Z,15.08
2022-10-16T03:10:52.306Z,15.04
2022-10-16T03:13:21.315Z,15.06
2022-10-16T03:15:47.965Z,15.04
2022-10-16T03:18:14.592Z,15.03
2022-10-16T03:20:41.431Z,15.01
2022-10-16T03:23:09.163Z,15.02
2022-10-16T03:25:35.834Z,14.93
2022-10-16T03:28:02.638Z,14.95
2022-10-16T03:30:29.539Z,14.98
2022-10-16T03:32:56.069Z,14.94
2022-10-16T03:35:23.929Z,14.93
2022-10-16T03:37:51.098Z,14.92
2022-10-16T03:40:18.251Z,14.89
2022-10-16T03:42:45.084Z,14.93
2022-10-16T03:45:12.474Z,14.91
2022-10-16T03:47:39.039Z,14.90
2022-10-16T03:50:06.141Z,14.88
2022-10-16T03:52:33.156Z,14.87
2022-10-16T03:54:59.950Z,14.84
2022-10-16T03:57:26.698Z,14.86
2022-10-16T03:59:53.411Z,14.83
2022-10-16T04:02:19.988Z,14.80
2022-10-16T04:04:46.488Z,14.80
2022-10-16T04:07:13.054Z,14.82
2022-10-16T04:09:39.523Z,14.77
2022-10-16T04:12:06.065Z,14.77
2022-10-16T04:14:32.622Z,14.78
2022-10-16T04:16:59.178Z,14.76
2022-10-16T04:19:26.149Z,14.76
2022-10-16T04:21:53.022Z,14.75
2022-10-16T04:24:19.517Z,14.66
2022-10-16T04:26:46.025Z,14.75
2022-10-16T04:29:12.546Z,14.68
2022-10-16T04:31:39.067Z,14.72
2022-10-16T04:34:05.541Z,14.69
2022-10-16T04:36:32.042Z,14.63
2022-10-16T04:38:58.513Z,14.66
2022-10-16T04:41:24.999Z,14.65
2022-10-16T04:43:51.610Z,14.66
2022-10-16T04:46:18.113Z,14.63
2022-10-16T04:48:44.559Z,14.61
2022-10-16T04:51:11.567Z,14.58
2022-10-16T04:53:38.086Z,14.55
2022-10-16T04:56:04.861Z,14.58
2022-10-16T04:58:31.373Z,14.57
2022-10-16T05:00:57.896Z,14.55
2022-10-16T05:03:24.422Z,14.54
2022-10-16T05:05:50.997Z,14.53
2022-10-16T05:08:17.837Z,14.55
2022-10-16T05:10:45.259Z,14.52
2022-10-16T05:13:12.547Z,14.54
2022-10-16T05:15:39.229Z,14.54
2022-10-16T05:18:05.905Z,14.54
2022-10-16T05:20:32.500Z,14.52
2022-10-16T05:22:59.187Z,14.46
2022-10-16T05:25:26.141Z,14.50
2022-10-16T05:27:52.657Z,14.45
2022-10-16T05:30:19.700Z,14.50
2022-10-16T05:32:50.782Z,14.49
2022-10-16T05:35:19.123Z,14.48
2022-10-16T05:37:46.200Z,14.45
2022-10-16T05:40:14.024Z,14.47
2022-10-16T05:42:41.245Z,14.47
2022-10-16T05:45:10.798Z,14.43
2022-10-16T05:47:37.610Z,14.45
2022-10-16T05:50:05.282Z,14.40
2022-10-16T05:52:31.762Z,14.41
2022-10-16T05:54:58.274Z,14.36
2022-10-16T05:57:25.112Z,14.39
2022-10-16T05:59:52.007Z,14.39
2022-10-16T06:02:18.473Z,14.40
2022-10-16T06:04:44.966Z,14.36
2022-10-16T06:07:11.790Z,14.36
2022-10-16T06:09:38.274Z,14.38
2022-10-16T06:12:04.985Z,14.37
2022-10-16T06:14:31.748Z,14.36
2022-10-16T06:16:58.330Z,14.36
2022-10-16T06:19:24.914Z,14.35
2022-10-16T06:21:51.449Z,14.32
2022-10-16T06:24:18.020Z,14.34
2022-10-16T06:26:44.574Z,14.32
2022-10-16T06:29:11.176Z,14.27
2022-10-16T06:31:37.837Z,14.33
2022-10-16T06:34:06.619Z,14.29
2022-10-16T06:36:33.199Z,14.31
2022-10-16T06:38:59.737Z,14.30
2022-10-16T06:41:26.228Z,14.25
2022-10-16T06:43:53.309Z,14.30
2022-10-16T06:46:22.789Z,14.30
2022-10-16T06:48:49.552Z,14.29
2022-10-16T06:51:18.418Z,14.28
2022-10-16T06:54:02.396Z,14.27
2022-10-16T06:56:31.995Z,14.28
2022-10-16T06:58:59.362Z,14.27
2022-10-16T07:01:26.825Z,14.27
2022-10-16T07:03:53.981Z,14.27
2022-10-16T07:06:23.599Z,14.28
2022-10-16T07:08:50.725Z,14.23
2022-10-16T07:11:23.100Z,14.23
2022-10-16T07:13:54.470Z,14.27
2022-10-16T07:16:29.677Z,14.25
2022-10-16T07:19:01.445Z,14.25
2022-10-16T07:21:31.024Z,14.21
2022-10-16T07:24:00.178Z,14.25
2022-10-16T07:26:28.224Z,14.25
2022-10-16T07:28:55.076Z,14.25
2022-10-16T07:31:22.208Z,14.26
2022-10-16T07:33:49.835Z,14.26
2022-10-16T07:36:18.888Z,14.27
2022-10-16T07:38:45.765Z,14.27
2022-10-16T07:41:16.088Z,14.27
2022-10-16T07:43:50.075Z,14.25
2022-10-16T07:46:17.945Z,14.26
2022-10-16T07:48:49.018Z,14.29
2022-10-16T07:51:17.714Z,14.29
2022-10-16T07:53:44.416Z,14.30
2022-10-16T07:56:12.677Z,14.30
2022-10-16T07:58:39.339Z,14.32
2022-10-16T08:01:08.287Z,14.33
2022-10-16T08:03:35.331Z,14.34
2022-10-16T08:06:02.817Z,14.34
2022-10-16T08:08:29.495Z,14.34
2022-10-16T08:10:56.019Z,14.38
2022-10-16T08:13:22.660Z,14.38
2022-10-16T08:15:49.208Z,14.40
2022-10-16T08:18:16.703Z,14.41
2022-10-16T08:20:44.071Z,14.45
2022-10-16T08:23:12.791Z,14.46
2022-10-16T08:25:39.768Z,14.49
2022-10-16T08:28:08.408Z,14.51
2022-10-16T08:30:35.271Z,14.54
2022-10-16T08:33:02.751Z,14.56
2022-10-16T08:35:29.545Z,14.56
2022-10-16T08:37:56.145Z,14.62
2022-10-16T08:40:29.196Z,14.64
2022-10-16T08:43:20.585Z,14.64
2022-10-16T08:46:24.666Z,14.67
2022-10-16T08:48:57.979Z,14.70
2022-10-16T08:51:31.911Z,14.72
2022-10-16T08:54:22.320Z,14.72
2022-10-16T08:56:48.937Z,14.73
2022-10-16T08:59:17.789Z,14.76
2022-10-16T09:01:47.454Z,14.81
2022-10-16T09:04:56.433Z,14.80
2022-10-16T09:07:39.515Z,14.82
2022-10-16T09:10:12.393Z,14.86
2022-10-16T09:12:52.908Z,14.86
2022-10-16T09:15:33.177Z,14.89
2022-10-16T09:18:13.699Z,14.91
2022-10-16T09:20:54.310Z,14.94
2022-10-16T09:23:34.418Z,14.99
2022-10-16T09:26:01.166Z,15.03
2022-10-16T09:28:27.727Z,15.03
2022-10-16T09:30:55.189Z,15.07
2022-10-16T09:33:26.967Z,15.10
2022-10-16T09:35:56.977Z,15.11
2022-10-16T09:38:34.776Z,15.13
2022-10-16T09:41:04.400Z,15.16
2022-10-16T09:43:49.585Z,15.19
2022-10-16T09:46:29.312Z,15.18
2022-10-16T09:48:59.351Z,15.22
2022-10-16T09:51:33.257Z,15.24
2022-10-16T09:54:13.478Z,15.26
2022-10-16T09:56:40.502Z,15.29
2022-10-16T09:59:13.734Z,15.31
2022-10-16T10:02:12.118Z,15.26
2022-10-16T10:04:42.763Z,15.34
2022-10-16T10:07:19.853Z,15.38
2022-10-16T10:09:46.922Z,15.41
2022-10-16T10:12:27.060Z,15.42
2022-10-16T10:14:59.039Z,15.45
2022-10-16T10:17:28.572Z,15.48
2022-10-16T10:20:01.712Z,15.51
2022-10-16T10:22:46.619Z,15.53
2022-10-16T10:25:13.322Z,15.54
2022-10-16T10:28:22.393Z,15.54
2022-10-16T10:31:09.268Z,15.57
2022-10-16T10:33:53.389Z,15.61
2022-10-16T10:36:31.246Z,15.59
2022-10-16T10:39:01.377Z,15.66
2022-10-16T10:41:56.507Z,15.66
2022-10-16T10:44:48.302Z,15.69
2022-10-16T10:47:38.338Z,15.71
2022-10-16T10:50:22.841Z,15.75
2022-10-16T10:52:51.158Z,15.71
2022-10-16T10:55:41.503Z,15.75
2022-10-16T10:58:26.276Z,15.77
2022-10-16T11:01:06.486Z,15.82
2022-10-16T11:04:20.383Z,15.79
2022-10-16T11:06:52.308Z,15.85
2022-10-16T11:09:27.138Z,15.88
2022-10-16T11:12:06.631Z,15.90
2022-10-16T11:14:58.279Z,15.90
2022-10-16T11:17:43.089Z,15.94
2022-10-16T11:20:18.986Z,15.98
2022-10-16T11:22:54.128Z,16.00
2022-10-16T11:25:31.914Z,16.01
2022-10-16T11:28:21.564Z,16.02
2022-10-16T11:31:06.475Z,16.06
2022-10-16T11:33:48.033Z,16.10
2022-10-16T11:36:25.161Z,16.12
2022-10-16T11:39:09.861Z,16.13
2022-10-16T11:41:50.174Z,16.15
2022-10-16T11:45:24.224Z,16.16
2022-10-16T11:48:03.207Z,16.19
2022-10-16T11:50:57.216Z,16.19
2022-10-16T11:53:39.263Z,16.23
2022-10-16T11:56:06.416Z,16.26
2022-10-16T11:58:40.052Z,16.29
2022-10-16T12:01:09.643Z,16.30
2022-10-16T12:04:06.617Z,16.32
2022-10-16T12:06:45.202Z,16.35
2022-10-16T12:09:36.238Z,16.35
2022-10-16T12:12:02.961Z,16.39
2022-10-16T12:14:29.411Z,16.41
2022-10-16T12:17:01.681Z,16.43
2022-10-16T12:19:30.292Z,16.46
2022-10-16T12:21:59.902Z,16.48
2022-10-16T12:24:39.067Z,16.49
2022-10-16T12:27:24.147Z,16.48
2022-10-16T12:29:56.908Z,16.53
2022-10-16T12:32:47.709Z,16.52
2022-10-16T12:35:28.287Z,16.55
2022-10-16T12:37:55.707Z,16.58
2022-10-16T12:40:34.266Z,16.60
2022-10-16T12:43:13.525Z,16.59
2022-10-16T12:45:40.179Z,16.64
2022-10-16T12:48:22.573Z,16.64
2022-10-16T12:50:49.597Z,16.68
2022-10-16T12:53:25.412Z,16.68
2022-10-16T12:56:18.263Z,16.70
2022-10-16T12:59:01.360Z,16.71
2022-10-16T13:02:02.986Z,16.70
2022-10-16T13:04:41.480Z,16.74
2022-10-16T13:07:19.837Z,16.76
2022-10-16T13:10:27.714Z,16.75
2022-10-16T13:13:21.928Z,16.77
2022-10-16T13:15:48.527Z,16.80
2022-10-16T13:18:42.802Z,16.79
2022-10-16T13:21:22.039Z,16.84
2022-10-16T13:23:57.590Z,16.83
2022-10-16T13:26:44.686Z,16.85
2022-10-16T13:29:11.491Z,16.85
2022-10-16T13:31:40.070Z,16.87
2022-10-16T13:34:13.562Z,16.90
2022-10-16T13:36:51.214Z,16.90
2022-10-16T13:39:26.747Z,16.91
2022-10-16T13:42:11.109Z,16.92
2022-10-16T13:44:41.157Z,16.88
2022-10-16T13:47:17.054Z,16.88
2022-10-16T13:49:43.985Z,16.95
2022-10-16T13:52:22.164Z,16.95
2022-10-16T13:54:49.043Z,16.98
2022-10-16T13:57:26.753Z,17.00
2022-10-16T13:59:54.781Z,17.01
2022-10-16T14:02:28.220Z,16.99
2022-10-16T14:04:56.464Z,17.01
2022-10-16T14:07:27.595Z,17.04
2022-10-16T14:09:55.464Z,17.05
2022-10-16T14:12:25.583Z,17.06
2022-10-16T14:14:56.448Z,17.07
2022-10-16T14:17:36.090Z,17.07
2022-10-16T14:20:07.056Z,17.07
2022-10-16T14:22:38.673Z,17.08
2022-10-16T14:25:20.615Z,17.08
2022-10-16T14:30:36.917Z,17.09
2022-10-16T14:33:06.825Z,17.10
2022-10-16T14:35:39.596Z,17.12
2022-10-16T14:38:18.239Z,17.08
2022-10-16T14:40:49.422Z,17.12
2022-10-16T14:43:23.792Z,17.11
2022-10-16T14:45:54.144Z,17.13
2022-10-16T14:48:21.737Z,17.13
2022-10-16T14:50:48.315Z,17.13
2022-10-16T14:53:15.505Z,17.14
2022-10-16T14:55:43.156Z,17.11
2022-10-16T14:58:18.917Z,17.11
2022-10-16T15:00:45.963Z,17.11
2022-10-16T15:03:12.644Z,17.13
2022-10-16T15:05:39.271Z,17.13
2022-10-16T15:08:05.946Z,17.12
2022-10-16T15:10:36.933Z,17.14
2022-10-16T15:13:03.404Z,17.13
2022-10-16T15:15:38.856Z,17.12
2022-10-16T15:18:06.090Z,17.13
2022-10-16T15:20:36.516Z,17.12
2022-10-16T15:23:21.570Z,17.09
2022-10-16T15:25:57.599Z,17.08
2022-10-16T15:28:26.706Z,17.11
2022-10-16T15:30:55.604Z,17.09
2022-10-16T15:33:25.740Z,17.09
2022-10-16T15:35:53.554Z,17.09
2022-10-16T15:38:22.164Z,17.09
2022-10-16T15:40:49.922Z,17.08
2022-10-16T15:43:16.888Z,17.05
2022-10-16T15:45:43.571Z,17.06
2022-10-16T15:48:16.953Z,17.05
2022-10-16T15:53:11.003Z,17.02
2022-10-16T15:55:38.805Z,17.01
2022-10-16T15:58:06.368Z,17.01
2022-10-16T16:00:33.201Z,16.99
2022-10-16T16:02:59.735Z,16.99
2022-10-16T16:05:26.544Z,16.97
2022-10-16T16:07:53.034Z,16.97
2022-10-16T16:10:21.529Z,16.95
2022-10-16T16:12:55.542Z,16.95
2022-10-16T16:15:23.037Z,16.90
2022-10-16T16:17:50.274Z,16.90
2022-10-16T16:20:16.937Z,16.87
2022-10-16T16:22:43.493Z,16.89
2022-10-16T16:25:10.168Z,16.87
2022-10-16T16:27:39.255Z,16.85
2022-10-16T16:30:08.298Z,16.84
2022-10-16T16:32:35.861Z,16.81
2022-10-16T16:35:03.295Z,16.78
2022-10-16T16:37:30.407Z,16.76
2022-10-16T16:39:59.382Z,16.71
2022-10-16T16:42:29.088Z,16.73
2022-10-16T16:44:55.705Z,16.70
2022-10-16T16:47:22.531Z,16.66
2022-10-16T16:49:49.078Z,16.54
2022-10-16T16:52:15.964Z,16.61
2022-10-16T16:54:43.149Z,16.56
2022-10-16T16:57:09.740Z,16.53
2022-10-16T16:59:36.717Z,16.55
2022-10-16T17:02:04.020Z,16.52
2022-10-16T17:04:30.710Z,16.45
2022-10-16T17:06:57.898Z,16.48
2022-10-16T17:09:24.798Z,16.46
2022-10-16T17:11:51.378Z,16.41
2022-10-16T17:14:18.060Z,16.39
2022-10-16T17:16:45.208Z,16.35
2022-10-16T17:19:14.676Z,16.36
2022-10-16T17:21:42.117Z,16.32
2022-10-16T17:24:08.981Z,16.32
2022-10-16T17:26:38.411Z,16.28
2022-10-16T17:29:05.416Z,16.25
2022-10-16T17:31:34.966Z,16.24
2022-10-16T17:34:03.092Z,16.20
2022-10-16T17:36:32.995Z,16.19
2022-10-16T17:39:10.751Z,16.15
2022-10-16T17:41:37.809Z,16.11
2022-10-16T17:44:07.469Z,16.12
2022-10-16T17:46:38.316Z,16.07
2022-10-16T17:49:08.001Z,16.05
2022-10-16T17:51:34.664Z,16.02
2022-10-16T17:54:01.881Z,15.96
2022-10-16T17:56:29.770Z,15.98
2022-10-16T17:59:00.050Z,15.96
2022-10-16T18:01:30.058Z,15.95
2022-10-16T18:04:02.555Z,15.89
2022-10-16T18:06:29.565Z,15.88
2022-10-16T18:08:57.919Z,15.84
2022-10-16T18:11:24.827Z,15.83
2022-10-16T18:13:56.629Z,15.79
2022-10-16T18:16:24.650Z,15.79
2022-10-16T18:18:51.563Z,15.77
2022-10-16T18:21:20.322Z,15.74
2022-10-16T18:23:51.023Z,15.72
2022-10-16T18:26:21.122Z,15.68
2022-10-16T18:28:48.157Z,15.65
2022-10-16T18:31:17.032Z,15.64
2022-10-16T18:33:48.166Z,15.60
2022-10-16T18:36:15.769Z,15.55
2022-10-16T18:38:42.977Z,15.53
2022-10-16T18:41:09.977Z,15.50
2022-10-16T18:43:38.439Z,15.48
2022-10-16T18:46:07.909Z,15.48
2022-10-16T18:48:35.002Z,15.45
2022-10-16T18:51:08.332Z,15.42
2022-10-16T18:53:35.121Z,15.38
2022-10-16T18:56:01.906Z,15.35
2022-10-16T18:58:28.418Z,15.35
2022-10-16T19:00:54.909Z,15.29
2022-10-16T19:03:21.628Z,15.27
2022-10-16T19:05:48.284Z,15.23
2022-10-16T19:08:15.101Z,15.19
2022-10-16T19:10:42.297Z,15.21
2022-10-16T19:13:11.015Z,15.18
2022-10-16T19:15:49.703Z,15.16
2022-10-16T19:18:26.972Z,15.13
2022-10-16T19:21:02.121Z,15.07
2022-10-16T19:23:28.662Z,15.09
2022-10-16T19:25:55.338Z,15.07
2022-10-16T19:28:22.032Z,15.01
2022-10-16T19:30:48.639Z,15.02
2022-10-16T19:33:15.105Z,15.00
2022-10-16T19:35:41.786Z,14.98
2022-10-16T19:38:08.436Z,14.96
2022-10-16T19:40:34.972Z,14.90
2022-10-16T19:43:01.651Z,14.92
2022-10-16T19:45:28.147Z,14.89
2022-10-16T19:47:54.662Z,14.87
2022-10-16T19:50:21.315Z,14.85
2022-10-16T19:52:47.807Z,14.84
2022-10-16T19:55:14.833Z,14.82
2022-10-16T19:57:41.301Z,14.81
2022-10-16T20:00:09.068Z,14.80
2022-10-16T20:02:36.263Z,14.77
2022-10-16T20:05:02.790Z,14.75
2022-10-16T20:07:32.563Z,14.72
2022-10-16T20:10:01.076Z,14.71
2022-10-16T20:12:27.670Z,14.71
2022-10-16T20:14:54.331Z,14.67
2022-10-16T20:17:20.920Z,14.67
2022-10-16T20:19:47.410Z,14.63
2022-10-16T20:22:13.897Z,14.62
2022-10-16T20:24:40.766Z,14.56
2022-10-16T20:27:07.211Z,14.59
2022-10-16T20:29:33.693Z,14.58
2022-10-16T20:32:00.193Z,14.54
2022-10-16T20:34:26.724Z,14.53
2022-10-16T20:36:53.449Z,14.51
2022-10-16T20:39:20.039Z,14.49
2022-10-16T20:41:46.772Z,14.48
2022-10-16T20:44:13.311Z,14.46
2022-10-16T20:46:39.935Z,14.46
2022-10-16T20:49:11.094Z,14.45
2022-10-16T20:51:43.950Z,14.43
2022-10-16T20:54:11.560Z,14.44
2022-10-16T20:56:38.161Z,14.43
2022-10-16T20:59:05.766Z,14.40
2022-10-16T21:01:32.619Z,14.38
2022-10-16T21:04:01.951Z,14.37
2022-10-16T21:06:29.453Z,14.36
2022-10-16T21:08:56.031Z,14.34
2022-10-16T21:11:27.470Z,14.32
2022-10-16T21:13:55.811Z,14.34
2022-10-16T21:16:23.138Z,14.32
2022-10-16T21:18:50.125Z,14.31
2022-10-16T21:21:25.398Z,14.28
2022-10-16T21:23:52.681Z,14.27
2022-10-16T21:26:25.970Z,14.28
2022-10-16T21:29:04.870Z,14.24
2022-10-16T21:31:33.057Z,14.23
2022-10-16T21:33:59.754Z,14.21
2022-10-16T21:36:32.048Z,14.20
2022-10-16T21:39:08.151Z,14.21
2022-10-16T21:41:35.840Z,14.19
2022-10-16T21:44:03.407Z,14.19
2022-10-16T21:46:32.877Z,14.17
2022-10-16T21:49:02.413Z,14.19
2022-10-16T21:51:32.482Z,14.17
2022-10-16T21:53:59.657Z,14.16
2022-10-16T21:56:26.152Z,14.14
2022-10-16T21:58:52.715Z,14.14
2022-10-16T22:01:21.565Z,14.12
2022-10-16T22:03:48.706Z,14.14
2022-10-16T22:06:17.980Z,14.11
2022-10-16T22:08:47.134Z,14.11
2022-10-16T22:11:26.607Z,14.11
2022-10-16T22:13:56.666Z,14.09
2022-10-16T22:16:26.459Z,14.09
2022-10-16T22:18:57.236Z,14.08
2022-10-16T22:21:24.387Z,14.08
2022-10-16T22:23:50.995Z,14.07
2022-10-16T22:26:17.685Z,14.06
2022-10-16T22:28:44.231Z,14.06
2022-10-16T22:31:12.646Z,14.05
2022-10-16T22:33:40.228Z,14.04
2022-10-16T22:36:10.170Z,14.04
2022-10-16T22:38:37.322Z,14.04
2022-10-16T22:41:14.467Z,14.03
2022-10-16T22:43:44.060Z,14.03
2022-10-16T22:46:14.229Z,14.03
2022-10-16T22:48:41.401Z,14.03
2022-10-16T22:51:08.490Z,14.02
2022-10-16T22:53:35.211Z,13.99
2022-10-16T22:56:01.820Z,14.01
2022-10-16T22:58:28.518Z,13.97
2022-10-16T23:00:54.998Z,14.00
2022-10-16T23:03:21.767Z,13.98
2022-10-16T23:05:48.350Z,14.00
2022-10-16T23:08:15.358Z,13.98
2022-10-16T23:10:43.983Z,13.98
2022-10-16T23:13:11.123Z,13.97
2022-10-16T23:15:42.557Z,13.99
2022-10-16T23:18:09.204Z,13.96
2022-10-16T23:20:38.530Z,13.98
2022-10-16T23:23:05.105Z,13.98
2022-10-16T23:25:31.597Z,13.98
2022-10-16T23:27:58.139Z,13.98
2022-10-16T23:30:24.854Z,13.97
2022-10-16T23:32:51.378Z,13.97
2022-10-16T23:35:17.929Z,13.98
2022-10-16T23:37:44.498Z,13.97
2022-10-16T23:40:11.407Z,13.98
2022-10-16T23:42:37.900Z,13.99
2022-10-16T23:45:04.985Z,13.98
2022-10-16T23:47:31.482Z,13.98
2022-10-16T23:49:57.961Z,13.97
2022-10-16T23:52:24.480Z,13.97
2022-10-16T23:54:50.925Z,13.98
2022-10-16T23:57:17.472Z,13.98
2022-10-16T23:59:43.975Z,13.99
